sensor_id;sensor_type;location;lat;lon;timestamp;P1;durP1;ratioP1;P2;durP2;ratioP2
45909;SDS011;31622;55.416;37.840;2022-08-07T00:01:08;7.78;;;6.97;;
45909;SDS011;31622;55.416;37.840;2022-08-07T00:03:34;8.70;;;6.30;;
45909;SDS011;31622;55.416;37.840;2022-08-07T00:06:00;9.00;;;5.95;;
45909;SDS011;31622;55.416;37.840;2022-08-07T00:08:26;9.70;;;6.63;;
45909;SDS011;31622;55.416;37.840;2022-08-07T00:10:52;11.77;;;5.85;;
45909;SDS011;31622;55.416;37.840;2022-08-07T00:13:18;7.82;;;6.18;;
45909;SDS011;31622;55.416;37.840;2022-08-07T00:15:45;7.25;;;5.75;;
45909;SDS011;31622;55.416;37.840;2022-08-07T00:18:11;8.95;;;6.38;;
45909;SDS011;31622;55.416;37.840;2022-08-07T00:20:40;9.77;;;6.60;;
45909;SDS011;31622;55.416;37.840;2022-08-07T00:23:06;8.40;;;6.10;;
45909;SDS011;31622;55.416;37.840;2022-08-07T00:25:35;8.98;;;6.20;;
45909;SDS011;31622;55.416;37.840;2022-08-07T00:28:01;9.00;;;6.22;;
45909;SDS011;31622;55.416;37.840;2022-08-07T00:30:27;7.63;;;5.95;;
45909;SDS011;31622;55.416;37.840;2022-08-07T00:32:53;7.80;;;5.93;;
45909;SDS011;31622;55.416;37.840;2022-08-07T00:35:20;7.90;;;6.00;;
45909;SDS011;31622;55.416;37.840;2022-08-07T00:37:46;9.23;;;5.82;;
45909;SDS011;31622;55.416;37.840;2022-08-07T00:40:12;7.30;;;5.80;;
45909;SDS011;31622;55.416;37.840;2022-08-07T00:42:38;9.75;;;6.13;;
45909;SDS011;31622;55.416;37.840;2022-08-07T00:45:04;9.15;;;5.85;;
45909;SDS011;31622;55.416;37.840;2022-08-07T00:47:31;8.82;;;5.85;;
45909;SDS011;31622;55.416;37.840;2022-08-07T00:49:57;7.97;;;6.15;;
45909;SDS011;31622;55.416;37.840;2022-08-07T00:52:23;8.88;;;6.15;;
45909;SDS011;31622;55.416;37.840;2022-08-07T00:54:48;10.70;;;6.38;;
45909;SDS011;31622;55.416;37.840;2022-08-07T00:57:15;8.00;;;5.88;;
45909;SDS011;31622;55.416;37.840;2022-08-07T00:59:41;8.77;;;5.70;;
45909;SDS011;31622;55.416;37.840;2022-08-07T01:02:08;8.50;;;6.00;;
45909;SDS011;31622;55.416;37.840;2022-08-07T01:04:33;8.25;;;6.25;;
45909;SDS011;31622;55.416;37.840;2022-08-07T01:07:00;9.02;;;6.25;;
45909;SDS011;31622;55.416;37.840;2022-08-07T01:09:26;7.15;;;5.95;;
45909;SDS011;31622;55.416;37.840;2022-08-07T01:11:52;9.93;;;6.55;;
45909;SDS011;31622;55.416;37.840;2022-08-07T01:14:19;7.20;;;6.07;;
45909;SDS011;31622;55.416;37.840;2022-08-07T01:16:45;7.70;;;6.00;;
45909;SDS011;31622;55.416;37.840;2022-08-07T01:19:11;7.13;;;5.80;;
45909;SDS011;31622;55.416;37.840;2022-08-07T01:21:37;8.23;;;6.10;;
45909;SDS011;31622;55.416;37.840;2022-08-07T01:24:04;6.78;;;5.60;;
45909;SDS011;31622;55.416;37.840;2022-08-07T01:26:30;9.85;;;6.22;;
45909;SDS011;31622;55.416;37.840;2022-08-07T01:28:56;8.77;;;6.45;;
45909;SDS011;31622;55.416;37.840;2022-08-07T01:31:27;8.43;;;6.10;;
45909;SDS011;31622;55.416;37.840;2022-08-07T01:33:57;7.68;;;5.63;;
45909;SDS011;31622;55.416;37.840;2022-08-07T01:36:28;7.82;;;5.40;;
45909;SDS011;31622;55.416;37.840;2022-08-07T01:38:56;7.85;;;5.60;;
45909;SDS011;31622;55.416;37.840;2022-08-07T01:41:23;6.57;;;5.88;;
45909;SDS011;31622;55.416;37.840;2022-08-07T01:43:50;7.68;;;5.50;;
45909;SDS011;31622;55.416;37.840;2022-08-07T01:46:18;8.50;;;6.10;;
45909;SDS011;31622;55.416;37.840;2022-08-07T01:48:45;7.75;;;6.07;;
45909;SDS011;31622;55.416;37.840;2022-08-07T01:51:19;15.40;;;6.10;;
45909;SDS011;31622;55.416;37.840;2022-08-07T01:53:50;9.50;;;6.05;;
45909;SDS011;31622;55.416;37.840;2022-08-07T01:59:20;8.25;;;5.72;;
45909;SDS011;31622;55.416;37.840;2022-08-07T02:01:52;8.18;;;6.25;;
45909;SDS011;31622;55.416;37.840;2022-08-07T02:04:29;8.40;;;6.07;;
45909;SDS011;31622;55.416;37.840;2022-08-07T02:07:01;7.22;;;6.07;;
45909;SDS011;31622;55.416;37.840;2022-08-07T02:09:28;9.15;;;6.20;;
45909;SDS011;31622;55.416;37.840;2022-08-07T02:11:56;6.93;;;5.95;;
45909;SDS011;31622;55.416;37.840;2022-08-07T02:14:25;9.25;;;5.75;;
45909;SDS011;31622;55.416;37.840;2022-08-07T02:16:51;7.72;;;5.82;;
45909;SDS011;31622;55.416;37.840;2022-08-07T02:19:18;10.80;;;6.35;;
45909;SDS011;31622;55.416;37.840;2022-08-07T02:21:45;8.65;;;5.88;;
45909;SDS011;31622;55.416;37.840;2022-08-07T02:24:11;7.90;;;5.80;;
45909;SDS011;31622;55.416;37.840;2022-08-07T02:26:39;8.20;;;5.95;;
45909;SDS011;31622;55.416;37.840;2022-08-07T02:29:05;7.38;;;6.40;;
45909;SDS011;31622;55.416;37.840;2022-08-07T02:31:33;7.40;;;6.15;;
45909;SDS011;31622;55.416;37.840;2022-08-07T02:34:00;8.32;;;6.30;;
45909;SDS011;31622;55.416;37.840;2022-08-07T02:36:26;8.57;;;5.95;;
45909;SDS011;31622;55.416;37.840;2022-08-07T02:38:55;7.82;;;6.57;;
45909;SDS011;31622;55.416;37.840;2022-08-07T02:41:23;8.95;;;5.57;;
45909;SDS011;31622;55.416;37.840;2022-08-07T02:43:51;10.45;;;6.32;;
45909;SDS011;31622;55.416;37.840;2022-08-07T02:46:17;8.20;;;6.20;;
45909;SDS011;31622;55.416;37.840;2022-08-07T02:48:44;8.13;;;5.65;;
45909;SDS011;31622;55.416;37.840;2022-08-07T02:51:11;6.95;;;6.05;;
45909;SDS011;31622;55.416;37.840;2022-08-07T02:53:38;8.75;;;6.32;;
45909;SDS011;31622;55.416;37.840;2022-08-07T02:56:14;8.60;;;5.80;;
45909;SDS011;31622;55.416;37.840;2022-08-07T02:58:42;8.95;;;6.28;;
45909;SDS011;31622;55.416;37.840;2022-08-07T03:01:09;9.73;;;6.70;;
45909;SDS011;31622;55.416;37.840;2022-08-07T03:03:36;9.55;;;6.28;;
45909;SDS011;31622;55.416;37.840;2022-08-07T03:06:02;7.43;;;5.35;;
45909;SDS011;31622;55.416;37.840;2022-08-07T03:08:29;8.05;;;5.55;;
45909;SDS011;31622;55.416;37.840;2022-08-07T03:10:57;11.48;;;5.68;;
45909;SDS011;31622;55.416;37.840;2022-08-07T03:13:30;7.97;;;5.72;;
45909;SDS011;31622;55.416;37.840;2022-08-07T03:15:55;5.53;;;5.00;;
45909;SDS011;31622;55.416;37.840;2022-08-07T03:18:21;10.00;;;5.57;;
45909;SDS011;31622;55.416;37.840;2022-08-07T03:20:48;8.13;;;5.82;;
45909;SDS011;31622;55.416;37.840;2022-08-07T03:23:14;6.90;;;4.93;;
45909;SDS011;31622;55.416;37.840;2022-08-07T03:25:41;7.40;;;5.88;;
45909;SDS011;31622;55.416;37.840;2022-08-07T03:28:08;8.68;;;5.38;;
45909;SDS011;31622;55.416;37.840;2022-08-07T03:30:34;11.63;;;5.20;;
45909;SDS011;31622;55.416;37.840;2022-08-07T03:33:01;8.68;;;5.50;;
45909;SDS011;31622;55.416;37.840;2022-08-07T03:35:30;7.32;;;5.13;;
45909;SDS011;31622;55.416;37.840;2022-08-07T03:37:57;9.32;;;5.43;;
45909;SDS011;31622;55.416;37.840;2022-08-07T03:40:28;5.88;;;4.63;;
45909;SDS011;31622;55.416;37.840;2022-08-07T03:42:55;9.48;;;4.65;;
45909;SDS011;31622;55.416;37.840;2022-08-07T03:45:22;7.25;;;4.95;;
45909;SDS011;31622;55.416;37.840;2022-08-07T03:47:49;7.40;;;4.82;;
45909;SDS011;31622;55.416;37.840;2022-08-07T03:50:20;10.60;;;4.80;;
45909;SDS011;31622;55.416;37.840;2022-08-07T03:52:52;8.05;;;4.88;;
45909;SDS011;31622;55.416;37.840;2022-08-07T03:55:19;6.90;;;4.95;;
45909;SDS011;31622;55.416;37.840;2022-08-07T03:57:45;5.55;;;4.60;;
45909;SDS011;31622;55.416;37.840;2022-08-07T04:00:12;8.10;;;4.82;;
45909;SDS011;31622;55.416;37.840;2022-08-07T04:02:41;7.43;;;5.15;;
45909;SDS011;31622;55.416;37.840;2022-08-07T04:05:13;7.03;;;4.18;;
45909;SDS011;31622;55.416;37.840;2022-08-07T04:07:46;6.05;;;4.70;;
45909;SDS011;31622;55.416;37.840;2022-08-07T04:10:16;6.00;;;4.53;;
45909;SDS011;31622;55.416;37.840;2022-08-07T04:12:43;8.38;;;4.68;;
45909;SDS011;31622;55.416;37.840;2022-08-07T04:15:09;5.65;;;4.32;;
45909;SDS011;31622;55.416;37.840;2022-08-07T04:17:36;6.13;;;4.50;;
45909;SDS011;31622;55.416;37.840;2022-08-07T04:20:03;6.25;;;4.40;;
45909;SDS011;31622;55.416;37.840;2022-08-07T04:22:33;7.80;;;4.10;;
45909;SDS011;31622;55.416;37.840;2022-08-07T04:25:02;8.85;;;4.13;;
45909;SDS011;31622;55.416;37.840;2022-08-07T04:27:30;5.32;;;4.43;;
45909;SDS011;31622;55.416;37.840;2022-08-07T04:29:58;6.93;;;4.00;;
45909;SDS011;31622;55.416;37.840;2022-08-07T04:32:24;7.88;;;3.90;;
45909;SDS011;31622;55.416;37.840;2022-08-07T04:34:50;5.28;;;4.00;;
45909;SDS011;31622;55.416;37.840;2022-08-07T04:37:17;6.18;;;3.95;;
45909;SDS011;31622;55.416;37.840;2022-08-07T04:39:43;6.32;;;3.67;;
45909;SDS011;31622;55.416;37.840;2022-08-07T04:42:11;7.50;;;4.60;;
45909;SDS011;31622;55.416;37.840;2022-08-07T04:44:37;6.97;;;4.00;;
45909;SDS011;31622;55.416;37.840;2022-08-07T04:50:12;9.15;;;3.90;;
45909;SDS011;31622;55.416;37.840;2022-08-07T04:53:04;5.43;;;3.53;;
45909;SDS011;31622;55.416;37.840;2022-08-07T05:03:28;5.53;;;3.90;;
45909;SDS011;31622;55.416;37.840;2022-08-07T05:06:21;5.13;;;3.97;;
45909;SDS011;31622;55.416;37.840;2022-08-07T05:11:39;6.00;;;3.85;;
45909;SDS011;31622;55.416;37.840;2022-08-07T05:16:59;7.22;;;4.10;;
45909;SDS011;31622;55.416;37.840;2022-08-07T05:19:30;8.73;;;4.15;;
45909;SDS011;31622;55.416;37.840;2022-08-07T05:22:00;6.47;;;3.88;;
45909;SDS011;31622;55.416;37.840;2022-08-07T05:24:31;6.30;;;3.97;;
45909;SDS011;31622;55.416;37.840;2022-08-07T05:26:58;5.75;;;3.70;;
45909;SDS011;31622;55.416;37.840;2022-08-07T05:29:26;8.25;;;3.65;;
45909;SDS011;31622;55.416;37.840;2022-08-07T05:31:52;13.55;;;4.75;;
45909;SDS011;31622;55.416;37.840;2022-08-07T05:34:24;6.55;;;3.50;;
45909;SDS011;31622;55.416;37.840;2022-08-07T05:36:51;5.40;;;3.30;;
45909;SDS011;31622;55.416;37.840;2022-08-07T05:39:24;6.47;;;4.28;;
45909;SDS011;31622;55.416;37.840;2022-08-07T05:41:55;6.88;;;3.55;;
45909;SDS011;31622;55.416;37.840;2022-08-07T05:44:21;5.40;;;3.38;;
45909;SDS011;31622;55.416;37.840;2022-08-07T05:46:47;3.97;;;3.30;;
45909;SDS011;31622;55.416;37.840;2022-08-07T05:49:15;7.10;;;4.10;;
45909;SDS011;31622;55.416;37.840;2022-08-07T05:51:45;8.25;;;3.72;;
45909;SDS011;31622;55.416;37.840;2022-08-07T05:54:11;7.00;;;3.65;;
45909;SDS011;31622;55.416;37.840;2022-08-07T05:56:39;5.10;;;3.08;;
45909;SDS011;31622;55.416;37.840;2022-08-07T05:59:07;5.82;;;3.65;;
45909;SDS011;31622;55.416;37.840;2022-08-07T06:01:38;5.20;;;3.67;;
45909;SDS011;31622;55.416;37.840;2022-08-07T06:04:06;8.00;;;3.17;;
45909;SDS011;31622;55.416;37.840;2022-08-07T06:06:37;5.03;;;3.20;;
45909;SDS011;31622;55.416;37.840;2022-08-07T06:09:04;7.55;;;3.55;;
45909;SDS011;31622;55.416;37.840;2022-08-07T06:11:33;4.88;;;3.25;;
45909;SDS011;31622;55.416;37.840;2022-08-07T06:14:00;5.30;;;3.80;;
45909;SDS011;31622;55.416;37.840;2022-08-07T06:16:26;8.82;;;3.50;;
45909;SDS011;31622;55.416;37.840;2022-08-07T06:18:53;4.55;;;3.28;;
45909;SDS011;31622;55.416;37.840;2022-08-07T06:21:20;5.45;;;3.50;;
45909;SDS011;31622;55.416;37.840;2022-08-07T06:23:46;5.00;;;3.47;;
45909;SDS011;31622;55.416;37.840;2022-08-07T06:26:12;4.82;;;3.22;;
45909;SDS011;31622;55.416;37.840;2022-08-07T06:28:51;4.85;;;3.33;;
45909;SDS011;31622;55.416;37.840;2022-08-07T06:31:18;7.40;;;3.50;;
45909;SDS011;31622;55.416;37.840;2022-08-07T06:33:44;6.07;;;3.55;;
45909;SDS011;31622;55.416;37.840;2022-08-07T06:36:13;8.38;;;3.53;;
45909;SDS011;31622;55.416;37.840;2022-08-07T06:38:49;5.60;;;3.33;;
45909;SDS011;31622;55.416;37.840;2022-08-07T06:41:54;8.18;;;3.65;;
45909;SDS011;31622;55.416;37.840;2022-08-07T06:44:10;7.70;;;3.63;;
45909;SDS011;31622;55.416;37.840;2022-08-07T06:46:37;5.90;;;3.50;;
45909;SDS011;31622;55.416;37.840;2022-08-07T06:49:03;7.88;;;3.38;;
45909;SDS011;31622;55.416;37.840;2022-08-07T06:51:30;8.25;;;3.60;;
45909;SDS011;31622;55.416;37.840;2022-08-07T06:53:58;6.22;;;3.03;;
45909;SDS011;31622;55.416;37.840;2022-08-07T06:56:30;5.05;;;3.45;;
45909;SDS011;31622;55.416;37.840;2022-08-07T06:59:06;7.22;;;3.17;;
45909;SDS011;31622;55.416;37.840;2022-08-07T07:01:34;5.55;;;3.45;;
45909;SDS011;31622;55.416;37.840;2022-08-07T07:04:01;6.75;;;3.10;;
45909;SDS011;31622;55.416;37.840;2022-08-07T07:06:29;5.32;;;3.28;;
45909;SDS011;31622;55.416;37.840;2022-08-07T07:08:55;5.57;;;3.22;;
45909;SDS011;31622;55.416;37.840;2022-08-07T07:11:21;3.80;;;3.08;;
45909;SDS011;31622;55.416;37.840;2022-08-07T07:13:48;5.93;;;3.20;;
45909;SDS011;31622;55.416;37.840;2022-08-07T07:16:17;7.35;;;3.70;;
45909;SDS011;31622;55.416;37.840;2022-08-07T07:18:53;5.97;;;3.42;;
45909;SDS011;31622;55.416;37.840;2022-08-07T07:21:22;6.07;;;3.13;;
45909;SDS011;31622;55.416;37.840;2022-08-07T07:23:50;8.45;;;3.42;;
45909;SDS011;31622;55.416;37.840;2022-08-07T07:26:17;6.18;;;3.15;;
45909;SDS011;31622;55.416;37.840;2022-08-07T07:28:57;4.38;;;2.80;;
45909;SDS011;31622;55.416;37.840;2022-08-07T07:31:29;4.75;;;3.22;;
45909;SDS011;31622;55.416;37.840;2022-08-07T07:34:00;3.72;;;2.80;;
45909;SDS011;31622;55.416;37.840;2022-08-07T07:36:29;3.60;;;3.00;;
45909;SDS011;31622;55.416;37.840;2022-08-07T07:38:56;4.68;;;3.03;;
45909;SDS011;31622;55.416;37.840;2022-08-07T07:41:23;5.38;;;3.08;;
45909;SDS011;31622;55.416;37.840;2022-08-07T07:43:49;3.40;;;3.03;;
45909;SDS011;31622;55.416;37.840;2022-08-07T07:46:16;5.18;;;3.10;;
45909;SDS011;31622;55.416;37.840;2022-08-07T07:48:44;9.77;;;3.65;;
45909;SDS011;31622;55.416;37.840;2022-08-07T07:51:10;3.30;;;2.72;;
45909;SDS011;31622;55.416;37.840;2022-08-07T07:53:39;5.97;;;3.05;;
45909;SDS011;31622;55.416;37.840;2022-08-07T07:56:07;6.82;;;3.50;;
45909;SDS011;31622;55.416;37.840;2022-08-07T07:58:34;9.25;;;3.38;;
45909;SDS011;31622;55.416;37.840;2022-08-07T08:01:00;4.68;;;3.08;;
45909;SDS011;31622;55.416;37.840;2022-08-07T08:03:27;5.60;;;3.08;;
45909;SDS011;31622;55.416;37.840;2022-08-07T08:05:54;4.72;;;3.22;;
45909;SDS011;31622;55.416;37.840;2022-08-07T08:08:24;5.03;;;3.40;;
45909;SDS011;31622;55.416;37.840;2022-08-07T08:10:51;5.68;;;3.00;;
45909;SDS011;31622;55.416;37.840;2022-08-07T08:13:17;5.95;;;3.60;;
45909;SDS011;31622;55.416;37.840;2022-08-07T08:15:44;5.75;;;3.13;;
45909;SDS011;31622;55.416;37.840;2022-08-07T08:18:11;4.50;;;3.20;;
45909;SDS011;31622;55.416;37.840;2022-08-07T08:20:37;8.43;;;3.35;;
45909;SDS011;31622;55.416;37.840;2022-08-07T08:23:06;5.78;;;3.08;;
45909;SDS011;31622;55.416;37.840;2022-08-07T08:25:51;5.53;;;2.67;;
45909;SDS011;31622;55.416;37.840;2022-08-07T08:28:37;4.20;;;2.78;;
45909;SDS011;31622;55.416;37.840;2022-08-07T08:31:08;4.60;;;3.00;;
45909;SDS011;31622;55.416;37.840;2022-08-07T08:33:35;10.00;;;3.30;;
45909;SDS011;31622;55.416;37.840;2022-08-07T08:36:04;5.53;;;3.00;;
45909;SDS011;31622;55.416;37.840;2022-08-07T08:38:33;6.03;;;3.65;;
45909;SDS011;31622;55.416;37.840;2022-08-07T08:44:00;4.70;;;2.85;;
45909;SDS011;31622;55.416;37.840;2022-08-07T08:46:40;2.80;;;2.55;;
45909;SDS011;31622;55.416;37.840;2022-08-07T08:51:56;4.45;;;3.05;;
45909;SDS011;31622;55.416;37.840;2022-08-07T08:54:31;5.75;;;2.97;;
45909;SDS011;31622;55.416;37.840;2022-08-07T08:57:09;4.95;;;2.92;;
45909;SDS011;31622;55.416;37.840;2022-08-07T08:59:42;7.88;;;2.65;;
45909;SDS011;31622;55.416;37.840;2022-08-07T09:02:25;6.10;;;2.95;;
45909;SDS011;31622;55.416;37.840;2022-08-07T09:04:57;4.07;;;2.60;;
45909;SDS011;31622;55.416;37.840;2022-08-07T09:23:54;7.30;;;2.90;;
45909;SDS011;31622;55.416;37.840;2022-08-07T09:29:25;6.35;;;2.78;;
45909;SDS011;31622;55.416;37.840;2022-08-07T09:38:11;7.55;;;3.10;;
45909;SDS011;31622;55.416;37.840;2022-08-07T09:51:14;4.78;;;2.50;;
45909;SDS011;31622;55.416;37.840;2022-08-07T09:53:54;4.22;;;2.78;;
45909;SDS011;31622;55.416;37.840;2022-08-07T09:56:27;6.47;;;2.95;;
45909;SDS011;31622;55.416;37.840;2022-08-07T10:11:04;4.90;;;2.95;;
45909;SDS011;31622;55.416;37.840;2022-08-07T10:19:11;3.80;;;2.88;;
45909;SDS011;31622;55.416;37.840;2022-08-07T10:30:13;4.43;;;2.85;;
45909;SDS011;31622;55.416;37.840;2022-08-07T10:35:23;4.18;;;3.00;;
45909;SDS011;31622;55.416;37.840;2022-08-07T10:38:01;3.42;;;3.00;;
45909;SDS011;31622;55.416;37.840;2022-08-07T10:40:47;3.67;;;2.50;;
45909;SDS011;31622;55.416;37.840;2022-08-07T10:43:20;7.22;;;2.88;;
45909;SDS011;31622;55.416;37.840;2022-08-07T10:45:50;4.75;;;3.10;;
45909;SDS011;31622;55.416;37.840;2022-08-07T11:01:48;3.50;;;2.40;;
45909;SDS011;31622;55.416;37.840;2022-08-07T11:07:02;5.15;;;2.50;;
45909;SDS011;31622;55.416;37.840;2022-08-07T11:09:33;10.77;;;2.72;;
45909;SDS011;31622;55.416;37.840;2022-08-07T11:12:10;8.98;;;3.38;;
45909;SDS011;31622;55.416;37.840;2022-08-07T11:14:47;10.05;;;3.10;;
45909;SDS011;31622;55.416;37.840;2022-08-07T11:17:29;7.13;;;2.53;;
45909;SDS011;31622;55.416;37.840;2022-08-07T11:20:02;8.05;;;2.80;;
45909;SDS011;31622;55.416;37.840;2022-08-07T11:22:37;10.27;;;2.90;;
45909;SDS011;31622;55.416;37.840;2022-08-07T11:25:10;5.53;;;2.92;;
45909;SDS011;31622;55.416;37.840;2022-08-07T11:27:49;8.98;;;3.60;;
45909;SDS011;31622;55.416;37.840;2022-08-07T11:30:19;3.83;;;2.40;;
45909;SDS011;31622;55.416;37.840;2022-08-07T11:33:05;3.88;;;2.20;;
45909;SDS011;31622;55.416;37.840;2022-08-07T11:35:42;6.97;;;2.90;;
45909;SDS011;31622;55.416;37.840;2022-08-07T11:41:22;6.72;;;2.45;;
45909;SDS011;31622;55.416;37.840;2022-08-07T11:44:09;3.70;;;1.90;;
45909;SDS011;31622;55.416;37.840;2022-08-07T11:55:25;6.22;;;2.10;;
45909;SDS011;31622;55.416;37.840;2022-08-07T11:58:01;7.38;;;2.08;;
45909;SDS011;31622;55.416;37.840;2022-08-07T12:00:37;4.57;;;2.03;;
45909;SDS011;31622;55.416;37.840;2022-08-07T12:09:04;8.10;;;2.15;;
45909;SDS011;31622;55.416;37.840;2022-08-07T12:13:41;4.70;;;2.00;;
45909;SDS011;31622;55.416;37.840;2022-08-07T12:16:28;6.35;;;2.25;;
45909;SDS011;31622;55.416;37.840;2022-08-07T12:19:04;5.28;;;2.00;;
45909;SDS011;31622;55.416;37.840;2022-08-07T12:21:40;3.10;;;2.13;;
45909;SDS011;31622;55.416;37.840;2022-08-07T12:27:01;3.85;;;1.98;;
45909;SDS011;31622;55.416;37.840;2022-08-07T12:30:09;4.32;;;1.90;;
45909;SDS011;31622;55.416;37.840;2022-08-07T12:35:03;4.60;;;2.00;;
45909;SDS011;31622;55.416;37.840;2022-08-07T12:37:31;5.88;;;1.65;;
45909;SDS011;31622;55.416;37.840;2022-08-07T12:39:58;5.57;;;2.20;;
45909;SDS011;31622;55.416;37.840;2022-08-07T12:42:26;4.90;;;2.00;;
45909;SDS011;31622;55.416;37.840;2022-08-07T12:44:53;5.85;;;1.65;;
45909;SDS011;31622;55.416;37.840;2022-08-07T12:47:26;2.60;;;1.88;;
45909;SDS011;31622;55.416;37.840;2022-08-07T12:50:07;6.28;;;1.95;;
45909;SDS011;31622;55.416;37.840;2022-08-07T12:52:46;3.50;;;1.90;;
45909;SDS011;31622;55.416;37.840;2022-08-07T12:55:20;5.70;;;1.98;;
45909;SDS011;31622;55.416;37.840;2022-08-07T12:57:48;3.15;;;2.00;;
45909;SDS011;31622;55.416;37.840;2022-08-07T13:00:15;6.68;;;2.35;;
45909;SDS011;31622;55.416;37.840;2022-08-07T13:10:57;3.08;;;2.22;;
45909;SDS011;31622;55.416;37.840;2022-08-07T13:24:22;11.32;;;3.45;;
45909;SDS011;31622;55.416;37.840;2022-08-07T13:27:01;13.23;;;4.40;;
45909;SDS011;31622;55.416;37.840;2022-08-07T13:29:37;9.68;;;4.03;;
45909;SDS011;31622;55.416;37.840;2022-08-07T13:32:13;8.70;;;4.10;;
45909;SDS011;31622;55.416;37.840;2022-08-07T13:34:45;9.32;;;4.30;;
45909;SDS011;31622;55.416;37.840;2022-08-07T13:37:17;7.30;;;3.45;;
45909;SDS011;31622;55.416;37.840;2022-08-07T13:42:51;8.77;;;3.45;;
45909;SDS011;31622;55.416;37.840;2022-08-07T13:45:23;3.90;;;3.15;;
45909;SDS011;31622;55.416;37.840;2022-08-07T13:47:51;7.57;;;3.67;;
45909;SDS011;31622;55.416;37.840;2022-08-07T13:50:19;9.10;;;3.70;;
45909;SDS011;31622;55.416;37.840;2022-08-07T13:52:47;6.03;;;3.40;;
45909;SDS011;31622;55.416;37.840;2022-08-07T13:55:15;8.68;;;4.40;;
45909;SDS011;31622;55.416;37.840;2022-08-07T13:57:48;6.72;;;3.40;;
45909;SDS011;31622;55.416;37.840;2022-08-07T14:00:15;8.90;;;3.85;;
45909;SDS011;31622;55.416;37.840;2022-08-07T14:02:41;11.07;;;3.75;;
45909;SDS011;31622;55.416;37.840;2022-08-07T14:05:12;7.75;;;3.67;;
45909;SDS011;31622;55.416;37.840;2022-08-07T14:07:39;12.23;;;4.18;;
45909;SDS011;31622;55.416;37.840;2022-08-07T14:10:07;9.25;;;3.90;;
45909;SDS011;31622;55.416;37.840;2022-08-07T14:18:03;8.25;;;4.05;;
45909;SDS011;31622;55.416;37.840;2022-08-07T14:20:33;6.88;;;3.90;;
45909;SDS011;31622;55.416;37.840;2022-08-07T14:23:04;5.95;;;3.85;;
45909;SDS011;31622;55.416;37.840;2022-08-07T14:25:33;7.28;;;3.85;;
45909;SDS011;31622;55.416;37.840;2022-08-07T14:28:02;7.88;;;3.92;;
45909;SDS011;31622;55.416;37.840;2022-08-07T14:30:29;7.05;;;3.80;;
45909;SDS011;31622;55.416;37.840;2022-08-07T14:32:56;6.40;;;3.20;;
45909;SDS011;31622;55.416;37.840;2022-08-07T14:35:25;7.40;;;3.65;;
45909;SDS011;31622;55.416;37.840;2022-08-07T14:37:54;5.28;;;3.03;;
45909;SDS011;31622;55.416;37.840;2022-08-07T14:40:22;5.90;;;3.05;;
45909;SDS011;31622;55.416;37.840;2022-08-07T14:42:56;6.03;;;3.28;;
45909;SDS011;31622;55.416;37.840;2022-08-07T14:45:31;5.40;;;2.97;;
45909;SDS011;31622;55.416;37.840;2022-08-07T14:48:00;4.07;;;2.53;;
45909;SDS011;31622;55.416;37.840;2022-08-07T14:50:27;6.22;;;3.05;;
45909;SDS011;31622;55.416;37.840;2022-08-07T14:52:54;5.25;;;3.38;;
45909;SDS011;31622;55.416;37.840;2022-08-07T14:55:21;5.90;;;2.70;;
45909;SDS011;31622;55.416;37.840;2022-08-07T14:57:48;7.18;;;2.88;;
45909;SDS011;31622;55.416;37.840;2022-08-07T15:00:15;5.35;;;2.85;;
45909;SDS011;31622;55.416;37.840;2022-08-07T15:02:44;5.43;;;2.58;;
45909;SDS011;31622;55.416;37.840;2022-08-07T15:05:14;4.38;;;2.85;;
45909;SDS011;31622;55.416;37.840;2022-08-07T15:07:41;4.82;;;2.83;;
45909;SDS011;31622;55.416;37.840;2022-08-07T15:10:09;4.25;;;2.50;;
45909;SDS011;31622;55.416;37.840;2022-08-07T15:12:41;3.55;;;2.58;;
45909;SDS011;31622;55.416;37.840;2022-08-07T15:15:08;4.80;;;3.15;;
45909;SDS011;31622;55.416;37.840;2022-08-07T15:17:37;5.30;;;2.92;;
45909;SDS011;31622;55.416;37.840;2022-08-07T15:20:07;5.45;;;3.17;;
45909;SDS011;31622;55.416;37.840;2022-08-07T15:22:45;5.68;;;3.58;;
45909;SDS011;31622;55.416;37.840;2022-08-07T15:25:17;5.15;;;3.42;;
45909;SDS011;31622;55.416;37.840;2022-08-07T15:27:53;3.80;;;2.53;;
45909;SDS011;31622;55.416;37.840;2022-08-07T15:30:22;4.10;;;2.75;;
45909;SDS011;31622;55.416;37.840;2022-08-07T15:32:48;4.45;;;2.80;;
45909;SDS011;31622;55.416;37.840;2022-08-07T15:35:15;6.40;;;2.80;;
45909;SDS011;31622;55.416;37.840;2022-08-07T15:37:47;4.15;;;2.40;;
45909;SDS011;31622;55.416;37.840;2022-08-07T15:40:14;2.70;;;2.20;;
45909;SDS011;31622;55.416;37.840;2022-08-07T15:45:11;5.65;;;2.70;;
45909;SDS011;31622;55.416;37.840;2022-08-07T15:47:42;7.82;;;2.60;;
45909;SDS011;31622;55.416;37.840;2022-08-07T15:50:09;3.35;;;2.40;;
45909;SDS011;31622;55.416;37.840;2022-08-07T15:52:36;2.67;;;2.13;;
45909;SDS011;31622;55.416;37.840;2022-08-07T15:55:03;6.15;;;2.67;;
45909;SDS011;31622;55.416;37.840;2022-08-07T15:57:32;5.68;;;2.30;;
45909;SDS011;31622;55.416;37.840;2022-08-07T15:59:59;6.32;;;2.65;;
45909;SDS011;31622;55.416;37.840;2022-08-07T16:02:27;4.68;;;3.00;;
45909;SDS011;31622;55.416;37.840;2022-08-07T16:04:59;6.30;;;2.50;;
45909;SDS011;31622;55.416;37.840;2022-08-07T16:07:31;5.20;;;2.55;;
45909;SDS011;31622;55.416;37.840;2022-08-07T16:10:11;5.15;;;2.70;;
45909;SDS011;31622;55.416;37.840;2022-08-07T16:21:18;7.38;;;3.75;;
45909;SDS011;31622;55.416;37.840;2022-08-07T16:26:41;7.68;;;3.72;;
45909;SDS011;31622;55.416;37.840;2022-08-07T16:32:41;5.05;;;3.33;;
45909;SDS011;31622;55.416;37.840;2022-08-07T16:34:49;5.63;;;2.92;;
45909;SDS011;31622;55.416;37.840;2022-08-07T16:50:50;6.22;;;3.22;;
45909;SDS011;31622;55.416;37.840;2022-08-07T16:58:31;5.38;;;3.30;;
45909;SDS011;31622;55.416;37.840;2022-08-07T17:01:26;5.70;;;3.05;;
45909;SDS011;31622;55.416;37.840;2022-08-07T17:06:55;8.30;;;3.70;;
45909;SDS011;31622;55.416;37.840;2022-08-07T17:09:29;4.13;;;3.08;;
45909;SDS011;31622;55.416;37.840;2022-08-07T17:12:03;7.00;;;3.15;;
45909;SDS011;31622;55.416;37.840;2022-08-07T17:20:08;5.88;;;2.80;;
45909;SDS011;31622;55.416;37.840;2022-08-07T17:22:55;3.72;;;2.72;;
45909;SDS011;31622;55.416;37.840;2022-08-07T17:25:40;5.32;;;2.67;;
45909;SDS011;31622;55.416;37.840;2022-08-07T17:28:16;5.28;;;2.83;;
45909;SDS011;31622;55.416;37.840;2022-08-07T17:30:55;4.45;;;2.58;;
45909;SDS011;31622;55.416;37.840;2022-08-07T17:33:29;4.18;;;2.72;;
45909;SDS011;31622;55.416;37.840;2022-08-07T17:35:59;5.18;;;2.75;;
45909;SDS011;31622;55.416;37.840;2022-08-07T17:41:03;3.60;;;2.80;;
45909;SDS011;31622;55.416;37.840;2022-08-07T17:43:35;3.58;;;2.55;;
45909;SDS011;31622;55.416;37.840;2022-08-07T17:46:08;4.55;;;2.83;;
45909;SDS011;31622;55.416;37.840;2022-08-07T17:51:34;4.80;;;3.53;;
45909;SDS011;31622;55.416;37.840;2022-08-07T17:54:23;9.57;;;5.80;;
45909;SDS011;31622;55.416;37.840;2022-08-07T17:59:51;7.85;;;5.60;;
45909;SDS011;31622;55.416;37.840;2022-08-07T18:07:30;8.10;;;5.50;;
45909;SDS011;31622;55.416;37.840;2022-08-07T18:10:08;7.30;;;4.95;;
45909;SDS011;31622;55.416;37.840;2022-08-07T18:12:46;7.35;;;5.53;;
45909;SDS011;31622;55.416;37.840;2022-08-07T18:15:27;7.32;;;4.63;;
45909;SDS011;31622;55.416;37.840;2022-08-07T18:18:03;5.75;;;4.50;;
45909;SDS011;31622;55.416;37.840;2022-08-07T18:20:42;7.68;;;4.63;;
45909;SDS011;31622;55.416;37.840;2022-08-07T18:23:24;5.78;;;4.00;;
45909;SDS011;31622;55.416;37.840;2022-08-07T18:26:00;5.60;;;3.90;;
45909;SDS011;31622;55.416;37.840;2022-08-07T18:28:37;7.22;;;3.35;;